createdAt,value
2022-10-22T00:02:20.851Z,7.00
2022-10-22T00:04:52.078Z,6.50
2022-10-22T00:07:24.119Z,5.80
2022-10-22T00:09:54.627Z,7.50
2022-10-22T00:12:25.198Z,6.30
2022-10-22T00:14:55.622Z,6.00
2022-10-22T00:17:26.066Z,6.70
2022-10-22T00:19:56.892Z,4.90
2022-10-22T00:22:27.338Z,5.90
2022-10-22T00:24:57.704Z,4.70
2022-10-22T00:27:28.049Z,7.60
2022-10-22T00:29:58.448Z,5.10
2022-10-22T00:32:28.793Z,6.10
2022-10-22T00:34:59.176Z,4.60
2022-10-22T00:37:30.353Z,5.50
2022-10-22T00:40:00.752Z,6.60
2022-10-22T00:42:31.278Z,10.40
2022-10-22T00:45:05.984Z,3.70
2022-10-22T00:47:40.581Z,5.50
2022-10-22T00:50:16.946Z,3.70
2022-10-22T00:52:47.813Z,6.60
2022-10-22T00:55:18.763Z,4.50
2022-10-22T00:57:49.786Z,3.40
2022-10-22T01:00:20.499Z,4.50
2022-10-22T01:02:53.266Z,5.20
2022-10-22T01:05:23.888Z,4.70
2022-10-22T01:07:55.718Z,4.20
2022-10-22T01:10:40.084Z,4.30
2022-10-22T01:13:23.897Z,6.20
2022-10-22T01:16:01.734Z,4.20
2022-10-22T01:18:40.793Z,6.30
2022-10-22T01:21:24.095Z,3.00
2022-10-22T01:24:17.940Z,3.30
2022-10-22T01:27:01.736Z,7.30
2022-10-22T01:29:35.066Z,3.80
2022-10-22T01:32:11.559Z,4.10
2022-10-22T01:34:45.101Z,4.80
2022-10-22T01:37:19.282Z,3.10
2022-10-22T01:39:50.819Z,3.80
2022-10-22T01:42:21.551Z,5.30
2022-10-22T01:44:51.994Z,4.90
2022-10-22T01:47:41.034Z,5.70
2022-10-22T01:50:34.396Z,3.40
2022-10-22T01:53:21.828Z,4.20
2022-10-22T01:56:05.469Z,5.10
2022-10-22T01:58:43.151Z,4.00
2022-10-22T02:01:22.916Z,3.30
2022-10-22T02:04:11.692Z,4.50
2022-10-22T02:06:44.639Z,3.90
2022-10-22T02:09:18.713Z,2.60
2022-10-22T02:11:50.745Z,3.60
2022-10-22T02:14:22.225Z,2.30
2022-10-22T02:16:53.572Z,2.90
2022-10-22T02:21:56.434Z,4.20
2022-10-22T02:24:27.639Z,3.80
2022-10-22T02:27:06.899Z,2.10
2022-10-22T02:29:42.545Z,4.30
2022-10-22T02:32:17.820Z,2.80
2022-10-22T02:34:50.127Z,3.00
2022-10-22T02:37:21.858Z,2.80
2022-10-22T02:39:54.551Z,3.50
2022-10-22T02:42:27.189Z,3.00
2022-10-22T02:44:57.489Z,3.90
2022-10-22T02:47:28.192Z,3.50
2022-10-22T02:49:58.615Z,4.60
2022-10-22T02:52:29.054Z,3.60
2022-10-22T02:55:02.629Z,3.10
2022-10-22T02:57:33.327Z,5.10
2022-10-22T03:00:04.037Z,4.30
2022-10-22T03:02:34.578Z,4.90
2022-10-22T03:05:05.719Z,3.60
2022-10-22T03:07:36.121Z,2.50
2022-10-22T03:10:07.709Z,4.50
2022-10-22T03:12:38.218Z,4.10
2022-10-22T03:15:09.723Z,5.50
2022-10-22T03:17:40.400Z,4.50
2022-10-22T03:20:12.019Z,5.00
2022-10-22T03:25:17.575Z,6.00
2022-10-22T03:27:48.917Z,3.50
2022-10-22T03:32:48.612Z,3.40
2022-10-22T03:35:19.205Z,6.50
2022-10-22T03:37:50.122Z,2.10
2022-10-22T03:40:21.422Z,3.70
2022-10-22T03:45:20.889Z,2.60
2022-10-22T03:47:51.306Z,1.70
2022-10-22T03:50:21.834Z,2.20
2022-10-22T03:52:53.276Z,3.30
2022-10-22T03:55:23.749Z,2.10
2022-10-22T03:57:54.101Z,5.60
2022-10-22T04:00:24.567Z,2.20
2022-10-22T04:02:54.890Z,1.50
2022-10-22T04:05:25.308Z,2.80
2022-10-22T04:07:55.742Z,1.50
2022-10-22T04:10:26.084Z,4.20
2022-10-22T04:12:56.549Z,3.60
2022-10-22T04:15:29.008Z,2.40
2022-10-22T04:17:59.470Z,2.90
2022-10-22T04:20:29.990Z,2.10
2022-10-22T04:23:00.297Z,2.90
2022-10-22T04:25:30.765Z,3.30
2022-10-22T04:28:01.114Z,1.70
2022-10-22T04:30:31.878Z,2.70
2022-10-22T04:33:02.657Z,2.50
2022-10-22T04:35:33.495Z,4.80
2022-10-22T04:38:04.046Z,1.30
2022-10-22T04:40:34.392Z,3.70
2022-10-22T04:43:04.973Z,3.20
2022-10-22T04:45:36.909Z,2.30
2022-10-22T04:48:08.089Z,2.70
2022-10-22T04:50:38.684Z,2.60
2022-10-22T04:53:13.135Z,2.00
2022-10-22T04:55:43.484Z,3.20
2022-10-22T04:58:13.892Z,2.20
2022-10-22T05:00:44.441Z,3.00
2022-10-22T05:03:14.817Z,2.50
2022-10-22T05:05:45.244Z,1.50
2022-10-22T05:08:15.684Z,2.20
2022-10-22T05:10:46.140Z,3.50
2022-10-22T05:13:16.577Z,5.40
2022-10-22T05:15:47.049Z,2.10
2022-10-22T05:18:19.072Z,3.40
2022-10-22T05:20:53.318Z,2.00
2022-10-22T05:23:23.765Z,2.90
2022-10-22T05:25:54.232Z,3.30
2022-10-22T05:28:24.752Z,1.80
2022-10-22T05:31:00.271Z,3.30
2022-10-22T05:33:31.680Z,2.80
2022-10-22T05:36:03.335Z,1.90
2022-10-22T05:38:34.290Z,2.90
2022-10-22T05:41:07.059Z,2.50
2022-10-22T05:43:38.238Z,3.10
2022-10-22T05:46:22.268Z,2.50
2022-10-22T05:48:55.148Z,2.30
2022-10-22T05:51:26.010Z,3.70
2022-10-22T05:53:59.213Z,6.20
2022-10-22T05:56:31.879Z,4.50
2022-10-22T06:01:37.937Z,3.50
2022-10-22T06:04:12.201Z,3.30
2022-10-22T06:06:48.340Z,2.50
2022-10-22T06:09:22.294Z,3.80
2022-10-22T06:12:02.790Z,2.40
2022-10-22T06:14:46.931Z,5.40
2022-10-22T06:17:17.249Z,2.60
2022-10-22T06:19:47.572Z,2.20
2022-10-22T06:22:18.023Z,3.40
2022-10-22T06:24:48.322Z,1.90
2022-10-22T06:27:18.690Z,2.10
2022-10-22T06:29:53.232Z,2.20
2022-10-22T06:32:23.862Z,3.20
2022-10-22T06:34:54.258Z,2.40
2022-10-22T06:37:24.542Z,1.70
2022-10-22T06:39:54.882Z,1.70
2022-10-22T06:42:25.669Z,2.70
2022-10-22T06:44:56.396Z,2.40
2022-10-22T06:47:26.854Z,1.90
2022-10-22T06:49:57.394Z,1.80
2022-10-22T06:52:27.846Z,1.90
2022-10-22T06:54:58.220Z,2.80
2022-10-22T06:57:29.110Z,2.60
2022-10-22T06:59:59.443Z,3.80
2022-10-22T07:02:29.717Z,4.30
2022-10-22T07:04:59.987Z,4.00
2022-10-22T07:07:30.552Z,3.40
2022-10-22T07:10:00.930Z,2.90
2022-10-22T07:12:31.223Z,2.90
2022-10-22T07:15:01.600Z,2.30
2022-10-22T07:17:32.174Z,2.00
2022-10-22T07:20:02.575Z,1.90
2022-10-22T07:22:34.437Z,3.00
2022-10-22T07:25:07.451Z,2.40
2022-10-22T07:27:38.211Z,3.40
2022-10-22T07:30:11.268Z,2.70
2022-10-22T07:32:41.705Z,4.00
2022-10-22T07:35:12.494Z,3.90
2022-10-22T07:37:43.252Z,2.20
2022-10-22T07:40:14.431Z,1.80
2022-10-22T07:42:45.077Z,3.00
2022-10-22T07:45:15.718Z,1.50
2022-10-22T07:47:47.879Z,2.10
2022-10-22T07:50:19.221Z,2.20
2022-10-22T07:55:18.687Z,2.90
2022-10-22T07:57:48.976Z,2.30
2022-10-22T08:00:23.156Z,2.40
2022-10-22T08:02:55.639Z,1.90
2022-10-22T08:05:26.021Z,1.10
2022-10-22T08:07:56.268Z,2.00
2022-10-22T08:10:26.575Z,2.20
2022-10-22T08:12:57.076Z,1.30
2022-10-22T08:15:27.455Z,3.60
2022-10-22T08:18:00.709Z,3.00
2022-10-22T08:24:19.459Z,2.10
2022-10-22T08:26:49.820Z,2.70
2022-10-22T08:29:21.602Z,2.00
2022-10-22T08:31:52.341Z,2.30
2022-10-22T08:34:23.235Z,2.30
2022-10-22T08:36:53.463Z,2.20
2022-10-22T08:39:23.874Z,5.10
2022-10-22T08:42:05.927Z,3.00
2022-10-22T08:44:53.821Z,1.50
2022-10-22T08:47:44.878Z,1.40
2022-10-22T08:50:20.264Z,2.40
2022-10-22T08:52:58.336Z,2.30
2022-10-22T08:55:31.749Z,3.60
2022-10-22T08:58:17.636Z,1.30
2022-10-22T09:00:53.393Z,1.90
2022-10-22T09:03:37.040Z,2.10
2022-10-22T09:06:14.533Z,1.40
2022-10-22T09:08:47.131Z,1.90
2022-10-22T09:11:25.207Z,4.70
2022-10-22T09:13:57.440Z,2.80
2022-10-22T09:16:36.270Z,3.40
2022-10-22T09:19:16.836Z,3.50
2022-10-22T09:21:55.343Z,2.30
2022-10-22T09:24:35.047Z,6.00
2022-10-22T09:27:14.786Z,2.60
2022-10-22T09:29:47.086Z,3.10
2022-10-22T09:32:18.451Z,3.40
2022-10-22T09:37:25.917Z,3.30
2022-10-22T09:39:58.888Z,3.50
2022-10-22T09:42:35.544Z,3.00
2022-10-22T09:45:07.070Z,2.30
2022-10-22T09:48:00.927Z,4.40
2022-10-22T09:50:39.569Z,3.20
2022-10-22T09:53:18.933Z,3.50
2022-10-22T09:55:53.800Z,4.10
2022-10-22T09:58:24.250Z,2.70
2022-10-22T10:00:58.288Z,4.20
2022-10-22T10:03:32.101Z,4.00
2022-10-22T10:06:06.010Z,3.10
2022-10-22T10:08:36.841Z,5.10
2022-10-22T10:11:15.555Z,3.80
2022-10-22T10:13:54.712Z,3.80
2022-10-22T10:16:39.654Z,2.80
2022-10-22T10:19:31.557Z,4.00
2022-10-22T10:22:13.238Z,5.30
2022-10-22T10:25:00.227Z,2.20
2022-10-22T10:27:37.570Z,2.40
2022-10-22T10:30:16.717Z,4.70
2022-10-22T10:33:10.399Z,4.70
2022-10-22T10:35:52.347Z,2.90
2022-10-22T10:38:39.459Z,4.20
2022-10-22T10:41:20.350Z,3.90
2022-10-22T10:44:06.569Z,2.00
2022-10-22T10:46:49.406Z,4.10
2022-10-22T10:49:25.221Z,4.00
2022-10-22T10:52:05.769Z,4.80
2022-10-22T10:54:47.644Z,3.90
2022-10-22T10:57:34.129Z,2.60
2022-10-22T11:00:10.918Z,3.30
2022-10-22T11:03:15.713Z,2.80
2022-10-22T11:05:49.609Z,3.00
2022-10-22T11:08:26.824Z,4.10
2022-10-22T11:11:01.469Z,4.40
2022-10-22T11:13:35.793Z,3.60
2022-10-22T11:16:13.211Z,3.70
2022-10-22T11:18:49.206Z,6.40
2022-10-22T11:21:28.205Z,5.10
2022-10-22T11:24:11.520Z,4.00
2022-10-22T11:26:47.701Z,4.00
2022-10-22T11:29:23.532Z,4.40
2022-10-22T11:31:56.800Z,2.90
2022-10-22T11:34:34.451Z,4.60
2022-10-22T11:37:07.486Z,4.60
2022-10-22T11:39:43.241Z,3.20
2022-10-22T11:42:19.706Z,3.40
2022-10-22T11:45:01.473Z,3.20
2022-10-22T11:47:35.221Z,4.70
2022-10-22T11:50:22.793Z,4.40
2022-10-22T11:53:01.418Z,4.10
2022-10-22T11:55:47.954Z,3.80
2022-10-22T11:58:32.944Z,4.40
2022-10-22T12:01:25.891Z,4.10
2022-10-22T12:04:21.897Z,4.70
2022-10-22T12:07:03.004Z,4.60
2022-10-22T12:09:41.357Z,4.30
2022-10-22T12:12:17.192Z,6.60
2022-10-22T12:14:59.572Z,2.40
2022-10-22T12:17:32.143Z,2.70
2022-10-22T12:20:09.340Z,3.70
2022-10-22T12:22:41.057Z,3.90
2022-10-22T12:25:23.678Z,3.00
2022-10-22T12:27:57.203Z,4.20
2022-10-22T12:30:29.014Z,6.20
2022-10-22T12:33:01.270Z,3.50
2022-10-22T12:35:35.552Z,5.10
2022-10-22T12:38:14.257Z,6.90
2022-10-22T12:40:47.692Z,8.20
2022-10-22T12:43:25.011Z,3.50
2022-10-22T12:45:57.657Z,5.50
2022-10-22T12:48:34.277Z,6.70
2022-10-22T12:51:07.994Z,5.70
2022-10-22T12:53:40.821Z,3.90
2022-10-22T12:56:16.361Z,6.40
2022-10-22T12:58:50.304Z,5.00
2022-10-22T13:01:21.189Z,5.80
2022-10-22T13:04:04.843Z,3.70
2022-10-22T13:06:37.031Z,6.00
2022-10-22T13:09:17.537Z,6.80
2022-10-22T13:11:54.881Z,5.80
2022-10-22T13:14:31.029Z,4.70
2022-10-22T13:17:10.186Z,6.90
2022-10-22T13:19:44.781Z,6.60
2022-10-22T13:22:34.111Z,8.50
2022-10-22T13:25:25.110Z,7.60
2022-10-22T13:27:57.833Z,4.70
2022-10-22T13:30:31.237Z,4.00
2022-10-22T13:33:03.337Z,3.20
2022-10-22T13:35:37.409Z,6.80
2022-10-22T13:38:14.461Z,7.20
2022-10-22T13:40:44.917Z,3.40
2022-10-22T13:43:16.880Z,5.30
2022-10-22T13:45:48.938Z,5.30
2022-10-22T13:48:22.033Z,4.50
2022-10-22T13:50:54.081Z,6.30
2022-10-22T13:53:26.725Z,5.90
2022-10-22T13:55:57.218Z,4.30
2022-10-22T13:58:27.566Z,8.40
2022-10-22T14:01:00.822Z,6.30
2022-10-22T14:03:34.463Z,4.40
2022-10-22T14:06:06.576Z,5.40
2022-10-22T14:08:38.255Z,6.50
2022-10-22T14:11:09.813Z,5.70
2022-10-22T14:13:40.703Z,5.00
2022-10-22T14:16:20.132Z,5.40
2022-10-22T14:18:51.423Z,6.20
2022-10-22T14:21:23.708Z,7.00
2022-10-22T14:23:54.534Z,5.70
2022-10-22T14:26:30.163Z,13.60
2022-10-22T14:29:16.208Z,6.50
2022-10-22T14:31:46.859Z,5.20
2022-10-22T14:34:18.493Z,5.70
2022-10-22T14:36:48.800Z,9.60
2022-10-22T14:39:19.431Z,10.40
2022-10-22T14:41:50.045Z,7.70
2022-10-22T14:44:20.313Z,6.60
2022-10-22T14:46:54.304Z,6.20
2022-10-22T14:49:24.739Z,5.30
2022-10-22T14:51:55.050Z,6.00
2022-10-22T14:54:25.308Z,8.20
2022-10-22T14:56:55.691Z,6.40
2022-10-22T14:59:26.101Z,6.00
2022-10-22T15:01:56.434Z,7.60
2022-10-22T15:04:28.276Z,5.00
2022-10-22T15:06:59.187Z,3.90
2022-10-22T15:09:30.135Z,6.30
2022-10-22T15:12:00.583Z,9.00
2022-10-22T15:14:31.049Z,5.90
2022-10-22T15:17:01.726Z,7.30
2022-10-22T15:19:33.320Z,5.20
2022-10-22T15:22:04.273Z,4.20
2022-10-22T15:24:34.632Z,3.40
2022-10-22T15:27:05.041Z,5.40
2022-10-22T15:29:36.232Z,5.90
2022-10-22T15:32:07.017Z,8.10
2022-10-22T15:34:38.614Z,4.00
2022-10-22T15:37:12.194Z,9.80
2022-10-22T15:39:43.444Z,5.30
2022-10-22T15:42:14.674Z,7.70
2022-10-22T15:47:14.126Z,7.60
2022-10-22T15:49:44.626Z,5.50
2022-10-22T15:52:15.793Z,7.10
2022-10-22T15:54:46.298Z,9.40
2022-10-22T15:57:16.747Z,9.60
2022-10-22T15:59:50.098Z,15.80
2022-10-22T16:02:20.420Z,10.10
2022-10-22T16:04:51.018Z,14.40
2022-10-22T16:07:24.649Z,10.70
2022-10-22T16:09:58.513Z,8.60
2022-10-22T16:12:31.062Z,8.40
2022-10-22T16:15:01.500Z,7.40
2022-10-22T16:17:31.885Z,10.40
2022-10-22T16:20:02.405Z,7.20
2022-10-22T16:22:34.191Z,10.30
2022-10-22T16:25:04.809Z,17.40
2022-10-22T16:27:35.338Z,11.80
2022-10-22T16:30:06.787Z,12.40
2022-10-22T16:32:37.305Z,7.70
2022-10-22T16:35:09.338Z,10.10
2022-10-22T16:37:39.920Z,11.40
2022-10-22T16:40:13.193Z,13.90
2022-10-22T16:42:44.453Z,9.10
2022-10-22T16:47:50.168Z,9.00
2022-10-22T16:50:20.834Z,9.80
2022-10-22T16:52:51.763Z,9.80
2022-10-22T16:55:22.211Z,12.20
2022-10-22T16:57:55.442Z,7.60
2022-10-22T17:00:25.907Z,9.10
2022-10-22T17:02:56.454Z,9.00
2022-10-22T17:05:27.001Z,10.50
2022-10-22T17:07:57.332Z,8.70
2022-10-22T17:10:27.799Z,9.40
2022-10-22T17:12:58.280Z,9.50
2022-10-22T17:15:30.435Z,12.50
2022-10-22T17:18:01.696Z,9.10
2022-10-22T17:23:00.913Z,9.50
2022-10-22T17:25:42.550Z,9.30
2022-10-22T17:28:13.654Z,9.70
2022-10-22T17:30:43.960Z,8.50
2022-10-22T17:33:14.404Z,14.30
2022-10-22T17:35:45.285Z,15.60
2022-10-22T17:38:15.598Z,10.30
2022-10-22T17:41:20.306Z,11.10
2022-10-22T17:44:10.460Z,13.20
2022-10-22T17:46:43.910Z,9.00
2022-10-22T17:49:19.475Z,10.00
2022-10-22T17:51:50.409Z,15.70
2022-10-22T17:54:20.999Z,11.00
2022-10-22T17:57:02.727Z,15.00
2022-10-22T17:59:34.075Z,13.00
2022-10-22T18:02:04.641Z,10.90
2022-10-22T18:04:35.596Z,11.80
2022-10-22T18:07:09.352Z,11.90
2022-10-22T18:09:40.093Z,15.00
2022-10-22T18:12:13.691Z,13.60
2022-10-22T18:14:44.338Z,13.00
2022-10-22T18:19:50.483Z,13.10
2022-10-22T18:22:21.059Z,13.80
2022-10-22T18:24:52.969Z,11.10
2022-10-22T18:27:23.560Z,17.50
2022-10-22T18:29:54.111Z,15.10
2022-10-22T18:32:24.814Z,10.70
2022-10-22T18:34:55.282Z,14.10
2022-10-22T18:37:25.749Z,16.20
2022-10-22T18:39:56.144Z,13.30
2022-10-22T18:42:29.188Z,10.00
2022-10-22T18:45:07.491Z,10.40
2022-10-22T18:47:42.185Z,11.00
2022-10-22T18:50:13.722Z,11.70
2022-10-22T18:52:44.405Z,13.50
2022-10-22T18:55:14.825Z,11.50
2022-10-22T18:57:45.076Z,9.60
2022-10-22T19:00:17.284Z,9.10
2022-10-22T19:02:47.561Z,11.20
2022-10-22T19:05:18.024Z,9.90
2022-10-22T19:07:50.179Z,8.30
2022-10-22T19:10:20.778Z,11.10
2022-10-22T19:12:51.955Z,9.50
2022-10-22T19:15:22.417Z,16.00
2022-10-22T19:17:52.877Z,14.60
2022-10-22T19:20:23.177Z,22.30
2022-10-22T19:22:58.186Z,12.60
2022-10-22T19:25:30.131Z,12.40
2022-10-22T19:28:01.567Z,11.00
2022-10-22T19:30:32.088Z,10.20
2022-10-22T19:33:02.623Z,11.30
2022-10-22T19:35:33.839Z,12.50
2022-10-22T19:38:04.211Z,15.50
2022-10-22T19:40:34.599Z,11.70
2022-10-22T19:43:05.018Z,9.60
2022-10-22T19:45:35.490Z,12.10
2022-10-22T19:48:06.315Z,7.60
2022-10-22T19:50:36.728Z,10.10
2022-10-22T19:53:07.210Z,9.30
2022-10-22T19:55:42.878Z,7.00
2022-10-22T19:58:15.115Z,9.80
2022-10-22T20:00:46.287Z,16.10
2022-10-22T20:03:17.122Z,7.50
2022-10-22T20:05:48.613Z,8.40
2022-10-22T20:08:19.565Z,10.70
2022-10-22T20:10:52.224Z,9.50
2022-10-22T20:13:23.127Z,9.10
2022-10-22T20:15:53.682Z,9.80
2022-10-22T20:18:24.150Z,11.30
2022-10-22T20:20:54.584Z,9.20
2022-10-22T20:23:25.046Z,9.40
2022-10-22T20:25:55.552Z,8.80
2022-10-22T20:28:26.145Z,8.60
2022-10-22T20:30:56.531Z,8.30
2022-10-22T20:33:27.095Z,10.70
2022-10-22T20:36:06.013Z,8.00
2022-10-22T20:41:15.707Z,8.00
2022-10-22T20:43:47.764Z,8.90
2022-10-22T20:46:22.830Z,10.70
2022-10-22T20:48:54.701Z,7.90
2022-10-22T20:51:25.422Z,8.60
2022-10-22T20:53:55.800Z,10.10
2022-10-22T20:56:27.748Z,9.80
2022-10-22T20:59:05.127Z,10.60
2022-10-22T21:01:38.051Z,8.60
2022-10-22T21:04:09.837Z,8.80
2022-10-22T21:06:42.829Z,7.70
2022-10-22T21:09:15.372Z,8.60
2022-10-22T21:11:46.097Z,5.90
2022-10-22T21:14:22.112Z,6.50
2022-10-22T21:16:53.177Z,8.50
2022-10-22T21:19:23.930Z,9.40
2022-10-22T21:21:55.070Z,8.40
2022-10-22T21:24:26.407Z,9.50
2022-10-22T21:29:25.689Z,8.40
2022-10-22T21:31:56.308Z,7.80
2022-10-22T21:34:26.969Z,8.30
2022-10-22T21:36:57.428Z,7.70
2022-10-22T21:39:27.977Z,8.00
2022-10-22T21:41:58.935Z,9.70
2022-10-22T21:44:29.412Z,8.10
2022-10-22T21:47:00.012Z,5.80
2022-10-22T21:49:30.692Z,5.10
2022-10-22T21:52:02.722Z,7.20
2022-10-22T21:54:33.335Z,4.30
2022-10-22T21:57:04.159Z,8.00
2022-10-22T21:59:36.099Z,5.80
2022-10-22T22:02:06.648Z,7.60
2022-10-22T22:04:37.199Z,7.50
2022-10-22T22:07:07.926Z,7.60
2022-10-22T22:09:40.734Z,10.50
2022-10-22T22:12:11.274Z,7.20
2022-10-22T22:14:41.919Z,9.60
2022-10-22T22:17:14.217Z,8.50
2022-10-22T22:19:44.671Z,7.60
2022-10-22T22:22:15.195Z,4.70
2022-10-22T22:24:45.696Z,5.70
2022-10-22T22:27:17.734Z,6.80
2022-10-22T22:29:48.280Z,6.10
2022-10-22T22:32:18.766Z,6.60
2022-10-22T22:34:49.423Z,4.90
2022-10-22T22:37:19.959Z,7.50
2022-10-22T22:39:51.350Z,6.60
2022-10-22T22:42:21.871Z,6.50
2022-10-22T22:44:52.371Z,8.20
2022-10-22T22:47:22.895Z,4.50
2022-10-22T22:49:53.333Z,7.20
2022-10-22T22:52:27.223Z,4.50
2022-10-22T22:54:57.661Z,4.60
2022-10-22T22:57:29.252Z,6.90
2022-10-22T22:59:59.634Z,5.90
2022-10-22T23:02:30.054Z,5.10
2022-10-22T23:05:00.541Z,8.50
2022-10-22T23:07:31.016Z,9.60
2022-10-22T23:10:02.207Z,7.90
2022-10-22T23:12:32.656Z,8.80
2022-10-22T23:15:03.838Z,6.90
2022-10-22T23:20:11.700Z,8.90
2022-10-22T23:22:42.428Z,7.20
2022-10-22T23:25:13.227Z,10.20
2022-10-22T23:27:44.136Z,9.90
2022-10-22T23:30:15.812Z,6.90
2022-10-22T23:32:46.321Z,6.20
2022-10-22T23:35:16.921Z,5.80
2022-10-22T23:37:47.414Z,6.00
2022-10-22T23:40:18.332Z,8.30
2022-10-22T23:42:48.763Z,5.70
2022-10-22T23:45:19.241Z,4.90
2022-10-22T23:47:49.605Z,8.50
2022-10-22T23:50:20.166Z,8.30
2022-10-22T23:52:51.932Z,5.70
2022-10-22T23:55:22.447Z,7.70
2022-10-22T23:57:53.110Z,8.40
